createdAt,value
2022-11-17T00:00:33.776Z,8.50
2022-11-17T00:03:00.652Z,8.50
2022-11-17T00:05:27.593Z,8.50
2022-11-17T00:07:54.470Z,8.50
2022-11-17T00:10:21.425Z,8.40
2022-11-17T00:13:06.896Z,8.40
2022-11-17T00:15:34.011Z,8.40
2022-11-17T00:18:19.396Z,8.40
2022-11-17T00:21:04.854Z,8.40
2022-11-17T00:23:52.038Z,8.30
2022-11-17T00:26:30.425Z,8.30
2022-11-17T00:29:02.385Z,8.30
2022-11-17T00:31:49.863Z,8.20
2022-11-17T00:34:19.300Z,8.30
2022-11-17T00:36:48.988Z,8.20
2022-11-17T00:39:18.330Z,8.20
2022-11-17T00:41:45.589Z,8.20
2022-11-17T00:44:12.564Z,8.20
2022-11-17T00:46:40.001Z,8.30
2022-11-17T00:49:08.095Z,8.30
2022-11-17T00:51:35.862Z,8.20
2022-11-17T00:54:03.571Z,8.20
2022-11-17T00:56:31.082Z,8.20
2022-11-17T00:58:58.124Z,8.20
2022-11-17T01:01:25.172Z,8.20
2022-11-17T01:04:02.862Z,8.20
2022-11-17T01:06:42.458Z,8.20
2022-11-17T01:09:16.116Z,8.20
2022-11-17T01:11:43.995Z,8.20
2022-11-17T01:14:32.697Z,8.20
2022-11-17T01:16:59.582Z,8.20
2022-11-17T01:19:26.558Z,8.30
2022-11-17T01:21:53.427Z,8.30
2022-11-17T01:24:20.392Z,8.30
2022-11-17T01:26:47.273Z,8.30
2022-11-17T01:29:17.215Z,8.30
2022-11-17T01:31:45.363Z,8.20
2022-11-17T01:34:12.388Z,8.10
2022-11-17T01:37:00.354Z,8.10
2022-11-17T01:39:28.745Z,8.10
2022-11-17T01:41:56.570Z,8.10
2022-11-17T01:44:57.615Z,8.10
2022-11-17T01:47:27.956Z,8.00
2022-11-17T01:50:06.985Z,8.10
2022-11-17T01:52:36.820Z,8.10
2022-11-17T01:55:04.433Z,8.10
2022-11-17T01:57:39.275Z,8.20
2022-11-17T02:00:09.273Z,8.20
2022-11-17T02:02:40.099Z,8.20
2022-11-17T02:05:22.077Z,8.20
2022-11-17T02:07:52.656Z,8.20
2022-11-17T02:10:19.577Z,8.20
2022-11-17T02:12:48.078Z,8.30
2022-11-17T02:15:15.051Z,8.30
2022-11-17T02:17:43.289Z,8.30
2022-11-17T02:20:17.910Z,8.30
2022-11-17T02:22:44.797Z,8.30
2022-11-17T02:25:33.216Z,8.30
2022-11-17T02:28:15.641Z,8.20
2022-11-17T02:30:57.668Z,8.20
2022-11-17T02:33:48.359Z,8.10
2022-11-17T02:36:29.477Z,8.10
2022-11-17T02:38:59.163Z,8.20
2022-11-17T02:41:31.315Z,8.30
2022-11-17T02:44:06.806Z,8.40
2022-11-17T02:46:40.537Z,8.30
2022-11-17T02:49:23.349Z,8.20
2022-11-17T02:51:54.363Z,8.20
2022-11-17T02:54:23.597Z,8.20
2022-11-17T02:56:50.596Z,8.00
2022-11-17T02:59:21.542Z,8.10
2022-11-17T03:02:16.324Z,8.10
2022-11-17T03:05:05.667Z,8.00
2022-11-17T03:07:50.832Z,8.00
2022-11-17T03:10:38.621Z,8.00
2022-11-17T03:13:23.707Z,8.10
2022-11-17T03:16:02.589Z,8.10
2022-11-17T03:18:30.524Z,8.20
2022-11-17T03:21:05.062Z,8.10
2022-11-17T03:23:45.015Z,8.20
2022-11-17T03:26:15.420Z,8.20
2022-11-17T03:28:46.525Z,8.10
2022-11-17T03:31:15.731Z,8.10
2022-11-17T03:33:44.994Z,8.10
2022-11-17T03:36:14.841Z,8.00
2022-11-17T03:38:51.936Z,8.00
2022-11-17T03:41:19.681Z,7.90
2022-11-17T03:43:51.811Z,7.90
2022-11-17T03:46:21.049Z,7.80
2022-11-17T03:48:56.945Z,7.60
2022-11-17T03:51:26.229Z,7.60
2022-11-17T03:53:54.685Z,7.60
2022-11-17T03:56:40.233Z,7.50
2022-11-17T03:59:17.252Z,7.60
2022-11-17T04:01:44.402Z,7.60
2022-11-17T04:04:20.160Z,7.70
2022-11-17T04:06:48.179Z,7.80
2022-11-17T04:09:17.638Z,7.90
2022-11-17T04:12:06.813Z,7.80
2022-11-17T04:14:54.051Z,7.80
2022-11-17T04:17:21.037Z,7.80
2022-11-17T04:19:48.700Z,7.80
2022-11-17T04:22:15.581Z,7.70
2022-11-17T04:24:42.488Z,7.80
2022-11-17T04:27:27.958Z,7.90
2022-11-17T04:29:54.838Z,7.80
2022-11-17T04:32:21.827Z,7.80
2022-11-17T04:34:48.695Z,7.80
2022-11-17T04:37:18.372Z,7.60
2022-11-17T04:39:45.795Z,7.60
2022-11-17T04:42:13.058Z,7.70
2022-11-17T04:44:40.029Z,7.70
2022-11-17T04:47:07.156Z,7.60
2022-11-17T04:49:34.335Z,7.70
2022-11-17T04:52:01.301Z,7.80
2022-11-17T04:54:28.468Z,7.50
2022-11-17T04:56:56.105Z,7.60
2022-11-17T04:59:23.747Z,7.60
2022-11-17T05:01:50.676Z,7.60
2022-11-17T05:04:39.588Z,7.60
2022-11-17T05:07:07.856Z,7.70
2022-11-17T05:09:35.068Z,7.70
2022-11-17T05:12:20.444Z,7.70
2022-11-17T05:14:49.216Z,7.80
2022-11-17T05:17:16.651Z,8.00
2022-11-17T05:19:45.553Z,7.90
2022-11-17T05:22:36.076Z,7.90
2022-11-17T05:25:04.159Z,7.90
2022-11-17T05:27:31.106Z,7.90
2022-11-17T05:29:58.005Z,7.90
2022-11-17T05:32:24.952Z,7.90
2022-11-17T05:34:52.121Z,7.90
2022-11-17T05:37:19.267Z,7.90
2022-11-17T05:39:46.145Z,7.80
2022-11-17T05:42:13.087Z,7.70
2022-11-17T05:44:40.090Z,7.70
2022-11-17T05:47:07.148Z,7.80
2022-11-17T05:49:34.007Z,7.70
2022-11-17T05:52:00.970Z,7.70
2022-11-17T05:54:27.874Z,7.60
2022-11-17T05:57:03.681Z,7.50
2022-11-17T05:59:35.928Z,7.50
2022-11-17T06:02:08.071Z,7.50
2022-11-17T06:04:35.273Z,7.50
2022-11-17T06:07:02.591Z,7.30
2022-11-17T06:09:33.335Z,7.30
2022-11-17T06:12:05.541Z,7.30
2022-11-17T06:14:34.528Z,7.30
2022-11-17T06:17:21.924Z,7.30
2022-11-17T06:19:54.940Z,7.40
2022-11-17T06:22:21.944Z,7.50
2022-11-17T06:24:48.983Z,7.50
2022-11-17T06:27:17.317Z,7.50
2022-11-17T06:29:45.431Z,7.50
2022-11-17T06:32:17.058Z,7.70
2022-11-17T06:34:51.941Z,7.50
2022-11-17T06:37:22.136Z,7.50
2022-11-17T06:39:49.031Z,7.50
2022-11-17T06:42:15.998Z,7.40
2022-11-17T06:44:43.612Z,7.40
2022-11-17T06:47:10.583Z,7.40
2022-11-17T06:49:37.559Z,7.30
2022-11-17T06:52:04.509Z,7.20
2022-11-17T06:54:31.464Z,7.30
2022-11-17T06:56:58.728Z,7.30
2022-11-17T06:59:25.745Z,7.30
2022-11-17T07:01:52.969Z,7.40
2022-11-17T07:04:20.011Z,7.40
2022-11-17T07:06:46.916Z,7.40
2022-11-17T07:09:13.853Z,7.40
2022-11-17T07:11:40.819Z,7.40
2022-11-17T07:14:07.931Z,7.40
2022-11-17T07:16:34.988Z,7.50
2022-11-17T07:19:03.808Z,7.50
2022-11-17T07:21:31.272Z,7.40
2022-11-17T07:23:58.272Z,7.40
2022-11-17T07:26:25.417Z,7.40
2022-11-17T07:28:52.369Z,7.40
2022-11-17T07:31:19.360Z,7.50
2022-11-17T07:33:46.522Z,7.40
2022-11-17T07:36:17.351Z,7.50
2022-11-17T07:38:44.341Z,7.50
2022-11-17T07:41:14.177Z,7.60
2022-11-17T07:43:41.331Z,7.60
2022-11-17T07:46:12.276Z,7.70
2022-11-17T07:48:40.255Z,7.80
2022-11-17T07:51:07.462Z,7.90
2022-11-17T07:53:35.401Z,8.00
2022-11-17T07:56:04.384Z,8.10
2022-11-17T07:58:31.645Z,8.10
2022-11-17T08:00:58.659Z,8.20
2022-11-17T08:03:25.780Z,8.20
2022-11-17T08:05:53.555Z,8.30
2022-11-17T08:08:20.533Z,8.40
2022-11-17T08:10:47.523Z,8.40
2022-11-17T08:13:15.578Z,8.40
2022-11-17T08:15:42.606Z,8.40
2022-11-17T08:18:09.617Z,8.50
2022-11-17T08:20:36.715Z,8.50
2022-11-17T08:23:03.886Z,8.60
2022-11-17T08:25:30.968Z,8.60
2022-11-17T08:27:58.423Z,8.80
2022-11-17T08:30:26.428Z,8.80
2022-11-17T08:32:54.611Z,8.80
2022-11-17T08:35:25.021Z,8.90
2022-11-17T08:37:53.094Z,8.90
2022-11-17T08:40:20.557Z,8.90
2022-11-17T08:42:47.638Z,9.00
2022-11-17T08:45:14.812Z,8.90
2022-11-17T08:47:41.838Z,8.90
2022-11-17T08:50:09.723Z,8.90
2022-11-17T08:52:36.799Z,8.80
2022-11-17T08:55:05.888Z,8.80
2022-11-17T08:57:33.515Z,8.80
2022-11-17T09:00:01.337Z,8.70
2022-11-17T09:02:28.780Z,8.70
2022-11-17T09:04:55.947Z,8.70
2022-11-17T09:07:23.068Z,8.70
2022-11-17T09:09:50.161Z,8.70
2022-11-17T09:12:19.066Z,8.80
2022-11-17T09:14:46.114Z,8.80
2022-11-17T09:17:13.124Z,8.80
2022-11-17T09:19:40.093Z,8.80
2022-11-17T09:22:07.163Z,8.80
2022-11-17T09:24:34.176Z,8.90
2022-11-17T09:27:03.111Z,8.90
2022-11-17T09:29:30.904Z,8.90
2022-11-17T09:31:57.940Z,8.90
2022-11-17T09:34:25.245Z,8.80
2022-11-17T09:36:52.173Z,8.90
2022-11-17T09:39:19.145Z,9.00
2022-11-17T09:41:48.900Z,9.00
2022-11-17T09:44:24.576Z,8.90
2022-11-17T09:46:54.287Z,8.90
2022-11-17T09:49:38.790Z,9.00
2022-11-17T09:53:07.495Z,9.00
2022-11-17T09:55:38.887Z,8.90
2022-11-17T09:58:20.163Z,8.90
2022-11-17T10:00:50.337Z,8.90
2022-11-17T10:03:22.224Z,8.90
2022-11-17T10:05:50.466Z,8.90
2022-11-17T10:08:20.768Z,8.90
2022-11-17T10:10:52.058Z,9.00
2022-11-17T10:13:34.395Z,9.00
2022-11-17T10:16:07.427Z,8.90
2022-11-17T10:18:38.765Z,9.00
2022-11-17T10:21:07.243Z,9.00
2022-11-17T10:23:42.853Z,9.00
2022-11-17T10:26:15.163Z,9.10
2022-11-17T10:28:42.848Z,9.10
2022-11-17T10:31:18.297Z,9.10
2022-11-17T10:33:48.737Z,9.10
2022-11-17T10:36:31.910Z,9.00
2022-11-17T10:39:00.701Z,9.00
2022-11-17T10:41:40.590Z,9.00
2022-11-17T10:44:32.202Z,9.00
2022-11-17T10:47:04.302Z,9.10
2022-11-17T10:49:35.090Z,9.10
2022-11-17T10:52:15.271Z,9.00
2022-11-17T10:54:42.672Z,9.10
2022-11-17T10:57:19.997Z,9.10
2022-11-17T10:59:57.124Z,9.10
2022-11-17T11:02:32.128Z,9.10
2022-11-17T11:05:15.076Z,9.10
2022-11-17T11:07:42.918Z,9.10
2022-11-17T11:10:25.151Z,9.10
2022-11-17T11:13:17.028Z,9.20
2022-11-17T11:15:45.254Z,9.20
2022-11-17T11:18:16.727Z,9.20
2022-11-17T11:21:07.290Z,9.20
2022-11-17T11:23:40.289Z,9.20
2022-11-17T11:26:10.003Z,9.20
2022-11-17T11:28:54.255Z,9.20
2022-11-17T11:31:57.018Z,9.20
2022-11-17T11:34:34.917Z,9.30
2022-11-17T11:37:08.728Z,9.20
2022-11-17T11:40:09.661Z,9.20
2022-11-17T11:42:39.340Z,9.30
2022-11-17T11:45:38.723Z,9.30
2022-11-17T11:48:28.294Z,9.30
2022-11-17T11:51:00.144Z,9.40
2022-11-17T11:53:54.761Z,9.50
2022-11-17T11:56:35.990Z,9.60
2022-11-17T11:59:30.649Z,9.60
2022-11-17T12:02:12.744Z,9.70
2022-11-17T12:04:57.420Z,9.60
2022-11-17T12:07:31.225Z,9.70
2022-11-17T12:10:17.070Z,9.60
2022-11-17T12:12:46.332Z,9.70
2022-11-17T12:15:34.994Z,9.80
2022-11-17T12:18:04.071Z,9.70
2022-11-17T12:20:30.940Z,9.70
2022-11-17T12:23:21.970Z,9.80
2022-11-17T12:25:54.283Z,9.90
2022-11-17T12:28:38.307Z,9.90
2022-11-17T12:31:26.265Z,10.00
2022-11-17T12:33:53.154Z,10.00
2022-11-17T12:36:31.761Z,10.10
2022-11-17T12:39:01.252Z,10.00
2022-11-17T12:41:47.046Z,10.00
2022-11-17T12:44:32.455Z,10.10
2022-11-17T12:47:17.904Z,10.00
2022-11-17T12:50:14.363Z,10.00
2022-11-17T12:52:50.273Z,10.00
2022-11-17T12:55:31.166Z,10.00
2022-11-17T12:58:10.347Z,10.10
2022-11-17T13:00:53.708Z,10.10
2022-11-17T13:03:55.003Z,10.10
2022-11-17T13:06:35.595Z,10.20
2022-11-17T13:09:07.492Z,10.20
2022-11-17T13:11:35.261Z,10.10
2022-11-17T13:14:15.165Z,10.20
2022-11-17T13:16:52.201Z,10.20
2022-11-17T13:19:28.085Z,10.20
2022-11-17T13:22:17.057Z,10.30
2022-11-17T13:24:48.984Z,10.40
2022-11-17T13:27:22.906Z,10.50
2022-11-17T13:29:50.797Z,10.50
2022-11-17T13:32:21.294Z,10.50
2022-11-17T13:34:53.065Z,10.60
2022-11-17T13:37:24.947Z,10.50
2022-11-17T13:40:20.884Z,10.50
2022-11-17T13:42:48.490Z,10.50
2022-11-17T13:45:16.485Z,10.50
2022-11-17T13:47:46.775Z,10.50
2022-11-17T13:50:31.587Z,10.50
2022-11-17T13:52:59.706Z,10.50
2022-11-17T13:55:28.106Z,10.40
2022-11-17T13:58:04.277Z,10.40
2022-11-17T14:00:32.316Z,10.40
2022-11-17T14:03:01.945Z,10.50
2022-11-17T14:05:33.562Z,10.40
2022-11-17T14:08:23.414Z,10.40
2022-11-17T14:10:50.703Z,10.40
2022-11-17T14:13:17.561Z,10.40
2022-11-17T14:15:53.746Z,10.30
2022-11-17T14:18:34.255Z,10.30
2022-11-17T14:21:10.378Z,10.30
2022-11-17T14:23:37.618Z,10.40
2022-11-17T14:26:05.267Z,10.30
2022-11-17T14:28:32.128Z,10.30
2022-11-17T14:30:59.015Z,10.30
2022-11-17T14:33:26.312Z,10.20
2022-11-17T14:35:55.908Z,10.30
2022-11-17T14:38:23.458Z,10.20
2022-11-17T14:40:52.161Z,10.30
2022-11-17T14:43:20.916Z,10.20
2022-11-17T14:45:48.873Z,10.20
2022-11-17T14:48:19.258Z,10.20
2022-11-17T14:50:47.870Z,10.10
2022-11-17T14:53:15.088Z,10.10
2022-11-17T14:55:42.061Z,10.00
2022-11-17T14:58:09.986Z,10.10
2022-11-17T15:00:37.286Z,10.20
2022-11-17T15:03:04.606Z,10.20
2022-11-17T15:05:31.973Z,10.10
2022-11-17T15:07:59.031Z,10.10
2022-11-17T15:10:26.001Z,10.10
2022-11-17T15:12:52.941Z,10.00
2022-11-17T15:15:19.991Z,10.10
2022-11-17T15:17:46.868Z,10.00
2022-11-17T15:20:13.864Z,10.00
2022-11-17T15:22:40.912Z,10.00
2022-11-17T15:25:08.421Z,10.00
2022-11-17T15:27:35.251Z,9.90
2022-11-17T15:30:02.377Z,9.90
2022-11-17T15:32:29.825Z,9.90
2022-11-17T15:34:56.755Z,9.90
2022-11-17T15:37:24.946Z,9.80
2022-11-17T15:39:51.790Z,9.70
2022-11-17T15:42:18.623Z,9.70
2022-11-17T15:44:45.529Z,9.60
2022-11-17T15:47:12.361Z,9.60
2022-11-17T15:49:39.289Z,9.50
2022-11-17T15:52:06.145Z,9.60
2022-11-17T15:54:33.084Z,9.50
2022-11-17T15:57:01.451Z,9.50
2022-11-17T15:59:28.288Z,9.40
2022-11-17T16:01:55.136Z,9.30
2022-11-17T16:04:21.957Z,9.20
2022-11-17T16:06:49.132Z,9.00
2022-11-17T16:09:16.374Z,8.80
2022-11-17T16:11:43.636Z,8.90
2022-11-17T16:14:11.823Z,8.70
2022-11-17T16:16:39.677Z,8.80
2022-11-17T16:19:07.125Z,8.70
2022-11-17T16:21:34.272Z,8.80
2022-11-17T16:24:02.142Z,9.00
2022-11-17T16:26:30.013Z,8.90
2022-11-17T16:29:06.040Z,8.70
2022-11-17T16:31:35.151Z,8.50
2022-11-17T16:34:11.903Z,8.40
2022-11-17T16:36:40.291Z,8.40
2022-11-17T16:39:10.039Z,8.00
2022-11-17T16:41:39.066Z,8.00
2022-11-17T16:44:12.385Z,8.10
2022-11-17T16:46:42.858Z,8.00
2022-11-17T16:49:11.738Z,8.20
2022-11-17T16:51:38.692Z,8.10
2022-11-17T16:54:07.218Z,8.20
2022-11-17T16:56:34.522Z,8.30
2022-11-17T16:59:01.885Z,8.40
2022-11-17T17:01:31.424Z,8.30
2022-11-17T17:04:04.103Z,8.30
2022-11-17T17:06:31.327Z,8.40
2022-11-17T17:09:02.893Z,8.40
2022-11-17T17:11:31.874Z,8.50
2022-11-17T17:14:01.232Z,8.40
2022-11-17T17:16:28.106Z,8.30
2022-11-17T17:19:00.417Z,8.30
2022-11-17T17:21:28.647Z,8.40
2022-11-17T17:23:56.357Z,8.60
2022-11-17T17:26:26.824Z,8.60
2022-11-17T17:28:56.286Z,8.70
2022-11-17T17:31:25.108Z,8.60
2022-11-17T17:33:52.802Z,8.90
2022-11-17T17:36:24.825Z,9.00
2022-11-17T17:38:56.262Z,9.10
2022-11-17T17:41:26.595Z,9.10
2022-11-17T17:44:04.981Z,9.00
2022-11-17T17:46:35.507Z,9.00
2022-11-17T17:49:02.567Z,9.00
2022-11-17T17:51:29.975Z,8.80
2022-11-17T17:54:00.876Z,8.80
2022-11-17T17:56:28.294Z,8.80
2022-11-17T17:58:56.130Z,8.80
2022-11-17T18:01:28.509Z,9.00
2022-11-17T18:04:04.481Z,9.20
2022-11-17T18:06:39.171Z,9.10
2022-11-17T18:09:07.562Z,9.20
2022-11-17T18:11:35.679Z,9.10
2022-11-17T18:14:03.515Z,9.10
2022-11-17T18:16:32.656Z,9.10
2022-11-17T18:19:04.336Z,9.20
2022-11-17T18:21:31.988Z,9.10
2022-11-17T18:24:01.210Z,9.20
2022-11-17T18:26:31.480Z,9.20
2022-11-17T18:29:00.775Z,9.30
2022-11-17T18:31:29.863Z,9.30
2022-11-17T18:33:59.185Z,9.30
2022-11-17T18:36:27.030Z,9.30
2022-11-17T18:38:54.166Z,9.40
2022-11-17T18:41:22.051Z,9.40
2022-11-17T18:43:51.167Z,9.30
2022-11-17T18:46:21.524Z,9.30
2022-11-17T18:48:51.798Z,9.40
2022-11-17T18:51:21.421Z,9.40
2022-11-17T18:53:49.782Z,9.30
2022-11-17T18:56:19.539Z,9.30
2022-11-17T18:58:46.702Z,9.40
2022-11-17T19:01:19.568Z,9.40
2022-11-17T19:03:49.033Z,9.40
2022-11-17T19:06:17.280Z,9.40
2022-11-17T19:08:44.152Z,9.30
2022-11-17T19:11:11.855Z,9.20
2022-11-17T19:13:40.204Z,9.40
2022-11-17T19:16:16.920Z,9.40
2022-11-17T19:18:45.532Z,9.40
2022-11-17T19:21:13.880Z,9.40
2022-11-17T19:23:44.418Z,9.30
2022-11-17T19:26:16.733Z,9.20
2022-11-17T19:28:44.400Z,9.20
2022-11-17T19:31:14.383Z,9.20
2022-11-17T19:33:41.889Z,9.20
2022-11-17T19:36:11.410Z,9.20
2022-11-17T19:38:38.797Z,9.10
2022-11-17T19:41:13.677Z,9.20
2022-11-17T19:43:45.044Z,9.20
2022-11-17T19:46:17.268Z,9.20
2022-11-17T19:48:44.631Z,9.20
2022-11-17T19:51:26.453Z,9.10
2022-11-17T19:53:56.594Z,9.20
2022-11-17T19:56:24.735Z,9.30
2022-11-17T19:58:52.317Z,9.30
2022-11-17T20:01:25.238Z,9.20
2022-11-17T20:03:52.615Z,9.30
2022-11-17T20:06:22.411Z,9.40
2022-11-17T20:08:49.580Z,9.40
2022-11-17T20:11:18.951Z,9.50
2022-11-17T20:13:46.419Z,9.40
2022-11-17T20:16:15.986Z,9.30
2022-11-17T20:18:44.554Z,9.20
2022-11-17T20:21:14.038Z,9.20
2022-11-17T20:23:43.470Z,9.20
2022-11-17T20:26:22.894Z,9.20
2022-11-17T20:28:49.875Z,9.20
2022-11-17T20:31:19.501Z,9.20
2022-11-17T20:33:48.095Z,9.30
2022-11-17T20:36:20.229Z,9.40
2022-11-17T20:38:55.754Z,9.30
2022-11-17T20:41:23.460Z,9.40
2022-11-17T20:43:52.108Z,9.40
2022-11-17T20:46:19.952Z,9.40
2022-11-17T20:48:47.418Z,9.40
2022-11-17T20:51:20.079Z,9.40
2022-11-17T20:53:47.461Z,9.40
2022-11-17T20:56:18.548Z,9.30
2022-11-17T20:58:46.017Z,9.30
2022-11-17T21:01:14.655Z,9.30
2022-11-17T21:03:42.230Z,9.30
2022-11-17T21:06:10.225Z,9.30
2022-11-17T21:08:39.097Z,9.20
2022-11-17T21:11:08.549Z,9.20
2022-11-17T21:13:36.729Z,9.10
2022-11-17T21:16:12.120Z,9.10
2022-11-17T21:18:44.333Z,9.00
2022-11-17T21:21:11.559Z,9.00
2022-11-17T21:23:40.138Z,9.00
2022-11-17T21:26:18.918Z,8.90
2022-11-17T21:28:47.189Z,9.00
2022-11-17T21:31:23.642Z,9.10
2022-11-17T21:34:14.934Z,9.10
2022-11-17T21:36:41.968Z,8.90
2022-11-17T21:39:09.078Z,8.90
2022-11-17T21:41:37.792Z,8.90
2022-11-17T21:44:05.100Z,9.00
2022-11-17T21:46:34.058Z,9.00
2022-11-17T21:49:01.582Z,8.90
2022-11-17T21:51:33.365Z,8.90
2022-11-17T21:54:03.369Z,8.90
2022-11-17T21:56:32.191Z,8.80
2022-11-17T21:59:01.001Z,8.90
2022-11-17T22:01:29.280Z,8.90
2022-11-17T22:03:56.390Z,8.90
2022-11-17T22:06:24.985Z,8.90
2022-11-17T22:08:53.064Z,8.90
2022-11-17T22:11:37.680Z,8.80
2022-11-17T22:14:19.457Z,8.80
2022-11-17T22:16:52.017Z,8.80
2022-11-17T22:19:21.070Z,8.80
2022-11-17T22:21:49.952Z,8.80
2022-11-17T22:24:17.742Z,8.80
2022-11-17T22:26:45.793Z,8.80
2022-11-17T22:29:19.105Z,8.80
2022-11-17T22:31:48.583Z,8.70
2022-11-17T22:34:16.013Z,8.70
2022-11-17T22:36:43.124Z,8.70
2022-11-17T22:39:09.985Z,8.70
2022-11-17T22:41:37.044Z,8.60
2022-11-17T22:44:04.486Z,8.40
2022-11-17T22:46:31.502Z,8.50
2022-11-17T22:48:58.544Z,8.60
2022-11-17T22:51:44.551Z,8.70
2022-11-17T22:54:11.773Z,8.80
2022-11-17T22:56:39.217Z,8.70
2022-11-17T22:59:06.065Z,8.70
2022-11-17T23:01:32.992Z,8.60
2022-11-17T23:04:00.421Z,8.70
2022-11-17T23:06:27.393Z,8.70
2022-11-17T23:08:55.717Z,8.60
2022-11-17T23:11:36.428Z,8.70
2022-11-17T23:14:05.525Z,8.70
2022-11-17T23:16:33.190Z,8.70
2022-11-17T23:19:00.198Z,8.60
2022-11-17T23:21:27.253Z,8.70
2022-11-17T23:23:54.160Z,8.60
2022-11-17T23:26:22.317Z,8.60
2022-11-17T23:28:49.500Z,8.50
2022-11-17T23:31:17.458Z,8.50
2022-11-17T23:33:46.628Z,8.50
2022-11-17T23:36:19.533Z,8.60
2022-11-17T23:38:47.325Z,8.50
2022-11-17T23:41:16.391Z,8.60
2022-11-17T23:43:43.498Z,8.60
2022-11-17T23:46:13.183Z,8.50
2022-11-17T23:48:40.669Z,8.50
2022-11-17T23:51:15.986Z,8.50
2022-11-17T23:53:43.520Z,8.50
2022-11-17T23:56:11.056Z,8.40
2022-11-17T23:58:38.287Z,8.50
